createdAt,value
2022-11-22T00:00:56.186Z,96862.81
2022-11-22T00:03:24.049Z,96864.13
2022-11-22T00:05:52.235Z,96860.50
2022-11-22T00:08:20.039Z,96844.31
2022-11-22T00:10:50.024Z,96842.25
2022-11-22T00:13:19.519Z,96842.28
2022-11-22T00:15:58.137Z,96836.81
2022-11-22T00:18:25.751Z,96834.84
2022-11-22T00:20:53.424Z,96830.56
2022-11-22T00:23:23.567Z,96832.25
2022-11-22T00:25:51.488Z,96827.22
2022-11-22T00:28:19.150Z,96820.38
2022-11-22T00:30:46.795Z,96831.22
2022-11-22T00:33:14.581Z,96829.25
2022-11-22T00:35:42.349Z,96826.00
2022-11-22T00:38:09.905Z,96829.19
2022-11-22T00:40:37.459Z,96821.28
2022-11-22T00:43:05.250Z,96823.97
2022-11-22T00:45:33.006Z,96830.41
2022-11-22T00:48:00.748Z,96832.47
2022-11-22T00:50:28.620Z,96833.09
2022-11-22T00:53:22.452Z,96838.66
2022-11-22T00:55:51.311Z,96841.03
2022-11-22T00:58:18.936Z,96839.50
2022-11-22T01:00:46.620Z,96841.06
2022-11-22T01:03:20.387Z,96844.94
2022-11-22T01:05:48.213Z,96862.31
2022-11-22T01:08:15.819Z,96871.16
2022-11-22T01:10:43.663Z,96874.38
2022-11-22T01:13:12.981Z,96882.75
2022-11-22T01:15:40.751Z,96886.53
2022-11-22T01:18:11.803Z,96881.66
2022-11-22T01:20:41.190Z,96877.28
2022-11-22T01:23:08.744Z,96892.41
2022-11-22T01:25:36.624Z,96889.53
2022-11-22T01:28:04.532Z,96881.47
2022-11-22T01:30:32.227Z,96879.63
2022-11-22T01:32:59.808Z,96882.88
2022-11-22T01:35:27.419Z,96890.50
2022-11-22T01:37:55.081Z,96895.88
2022-11-22T01:40:22.770Z,96894.38
2022-11-22T01:42:57.077Z,96892.31
2022-11-22T01:45:30.877Z,96888.75
2022-11-22T01:48:10.454Z,96876.00
2022-11-22T01:50:41.608Z,96872.13
2022-11-22T01:53:37.976Z,96874.69
2022-11-22T01:56:10.298Z,96882.31
2022-11-22T01:58:41.807Z,96884.34
2022-11-22T02:01:09.586Z,96878.47
2022-11-22T02:03:42.798Z,96888.53
2022-11-22T02:06:11.254Z,96897.00
2022-11-22T02:09:01.842Z,96899.41
2022-11-22T02:11:33.999Z,96897.78
2022-11-22T02:14:03.541Z,96892.94
2022-11-22T02:16:31.255Z,96889.94
2022-11-22T02:18:59.045Z,96888.25
2022-11-22T02:21:28.261Z,96883.16
2022-11-22T02:24:21.822Z,96878.88
2022-11-22T02:26:49.428Z,96890.81
2022-11-22T02:29:18.405Z,96898.22
2022-11-22T02:31:47.575Z,96902.03
2022-11-22T02:34:15.131Z,96901.19
2022-11-22T02:36:49.290Z,96902.81
2022-11-22T02:39:23.771Z,96907.63
2022-11-22T02:41:52.464Z,96902.69
2022-11-22T02:44:21.767Z,96917.09
2022-11-22T02:46:52.034Z,96907.50
2022-11-22T02:49:23.352Z,96902.44
2022-11-22T02:51:52.628Z,96902.94
2022-11-22T02:54:21.239Z,96902.59
2022-11-22T02:56:49.282Z,96908.19
2022-11-22T02:59:17.041Z,96912.38
2022-11-22T03:01:47.247Z,96906.88
2022-11-22T03:04:24.850Z,96908.84
2022-11-22T03:06:56.392Z,96902.25
2022-11-22T03:09:26.093Z,96911.53
2022-11-22T03:11:54.862Z,96920.34
2022-11-22T03:14:23.200Z,96918.53
2022-11-22T03:16:51.758Z,96928.72
2022-11-22T03:19:19.845Z,96921.44
2022-11-22T03:21:47.837Z,96927.53
2022-11-22T03:24:15.690Z,96926.97
2022-11-22T03:26:49.018Z,96928.94
2022-11-22T03:29:18.147Z,96931.81
2022-11-22T03:31:45.784Z,96927.84
2022-11-22T03:34:14.323Z,96934.06
2022-11-22T03:36:42.022Z,96939.44
2022-11-22T03:39:09.998Z,96942.66
2022-11-22T03:41:37.704Z,96937.75
2022-11-22T03:44:05.629Z,96936.88
2022-11-22T03:46:33.356Z,96929.03
2022-11-22T03:49:00.883Z,96931.50
2022-11-22T03:51:28.773Z,96929.38
2022-11-22T03:53:57.548Z,96929.03
2022-11-22T03:56:25.169Z,96925.38
2022-11-22T03:58:53.763Z,96934.63
2022-11-22T04:01:21.420Z,96933.84
2022-11-22T04:03:49.891Z,96932.25
2022-11-22T04:06:17.487Z,96931.50
2022-11-22T04:08:45.171Z,96925.91
2022-11-22T04:11:12.832Z,96929.16
2022-11-22T04:13:58.908Z,96937.09
2022-11-22T04:16:26.435Z,96930.84
2022-11-22T04:18:58.719Z,96937.00
2022-11-22T04:21:35.318Z,96934.50
2022-11-22T04:24:29.967Z,96932.91
2022-11-22T04:26:58.256Z,96940.06
2022-11-22T04:29:26.387Z,96936.09
2022-11-22T04:32:13.080Z,96947.91
2022-11-22T04:34:40.804Z,96944.69
2022-11-22T04:37:08.430Z,96943.47
2022-11-22T04:39:36.514Z,96946.22
2022-11-22T04:42:23.992Z,96954.59
2022-11-22T04:44:51.616Z,96952.00
2022-11-22T04:47:38.528Z,96946.19
2022-11-22T04:50:28.900Z,96951.31
2022-11-22T04:53:00.925Z,96941.19
2022-11-22T04:55:54.013Z,96939.66
2022-11-22T04:58:22.473Z,96948.47
2022-11-22T05:01:03.053Z,96942.38
2022-11-22T05:03:30.747Z,96946.81
2022-11-22T05:06:03.448Z,96962.19
2022-11-22T05:08:31.865Z,96956.59
2022-11-22T05:10:59.844Z,96960.34
2022-11-22T05:13:34.839Z,96960.88
2022-11-22T05:16:04.936Z,96969.66
2022-11-22T05:18:32.945Z,96974.84
2022-11-22T05:21:14.549Z,96968.69
2022-11-22T05:23:57.235Z,96975.59
2022-11-22T05:26:34.498Z,96985.72
2022-11-22T05:29:10.545Z,96987.44
2022-11-22T05:31:39.843Z,96986.00
2022-11-22T05:34:07.690Z,96992.31
2022-11-22T05:36:36.049Z,96983.03
2022-11-22T05:39:04.570Z,96981.22
2022-11-22T05:41:32.240Z,96988.56
2022-11-22T05:43:59.939Z,96984.63
2022-11-22T05:46:30.314Z,96988.28
2022-11-22T05:48:59.125Z,96991.34
2022-11-22T05:51:34.545Z,96992.41
2022-11-22T05:54:03.390Z,96992.50
2022-11-22T05:56:31.032Z,96991.09
2022-11-22T05:58:58.866Z,96998.72
2022-11-22T06:01:26.709Z,97000.78
2022-11-22T06:03:55.001Z,97005.59
2022-11-22T06:06:22.858Z,97004.66
2022-11-22T06:08:51.490Z,97004.81
2022-11-22T06:11:25.388Z,97003.44
2022-11-22T06:13:59.807Z,97005.47
2022-11-22T06:16:27.852Z,97001.41
2022-11-22T06:19:21.002Z,97024.19
2022-11-22T06:21:48.595Z,97021.56
2022-11-22T06:24:16.279Z,97021.22
2022-11-22T06:26:44.039Z,97021.88
2022-11-22T06:29:11.741Z,97039.19
2022-11-22T06:31:39.361Z,97036.78
2022-11-22T06:34:08.968Z,97032.41
2022-11-22T06:36:39.354Z,97032.22
2022-11-22T06:39:07.053Z,97037.94
2022-11-22T06:41:37.306Z,97041.97
2022-11-22T06:44:09.659Z,97050.00
2022-11-22T06:46:38.120Z,97063.50
2022-11-22T06:49:05.738Z,97066.28
2022-11-22T06:51:33.651Z,97073.56
2022-11-22T06:54:01.448Z,97083.88
2022-11-22T06:56:47.481Z,97096.72
2022-11-22T06:59:15.087Z,97101.47
2022-11-22T07:01:42.763Z,97116.44
2022-11-22T07:04:10.740Z,97118.34
2022-11-22T07:06:39.515Z,97115.47
2022-11-22T07:09:10.107Z,97120.91
2022-11-22T07:11:39.776Z,97125.97
2022-11-22T07:14:09.346Z,97126.34
2022-11-22T07:16:38.577Z,97130.97
2022-11-22T07:19:07.402Z,97134.41
2022-11-22T07:21:37.573Z,97125.06
2022-11-22T07:24:07.153Z,97129.72
2022-11-22T07:26:35.004Z,97126.94
2022-11-22T07:29:03.460Z,97139.19
2022-11-22T07:31:31.101Z,97136.72
2022-11-22T07:34:01.655Z,97140.53
2022-11-22T07:36:30.263Z,97141.13
2022-11-22T07:38:58.543Z,97142.06
2022-11-22T07:41:26.202Z,97148.47
2022-11-22T07:43:54.555Z,97153.38
2022-11-22T07:46:31.605Z,97154.28
2022-11-22T07:49:01.587Z,97158.63
2022-11-22T07:51:29.695Z,97162.72
2022-11-22T07:53:58.164Z,97155.91
2022-11-22T07:56:26.032Z,97157.97
2022-11-22T07:58:55.447Z,97164.91
2022-11-22T08:01:23.658Z,97168.78
2022-11-22T08:03:51.379Z,97165.06
2022-11-22T08:06:18.987Z,97162.63
2022-11-22T08:08:46.537Z,97163.06
2022-11-22T08:11:14.255Z,97165.69
2022-11-22T08:13:42.582Z,97155.69
2022-11-22T08:16:17.562Z,97164.59
2022-11-22T08:18:50.012Z,97159.47
2022-11-22T08:21:47.642Z,97165.94
2022-11-22T08:24:16.805Z,97179.00
2022-11-22T08:26:44.789Z,97171.09
2022-11-22T08:29:14.514Z,97169.56
2022-11-22T08:31:42.315Z,97167.41
2022-11-22T08:34:09.905Z,97162.72
2022-11-22T08:36:37.614Z,97163.13
2022-11-22T08:39:05.245Z,97159.06
2022-11-22T08:41:32.946Z,97155.47
2022-11-22T08:44:00.517Z,97153.97
2022-11-22T08:46:28.138Z,97140.69
2022-11-22T08:48:55.882Z,97143.66
2022-11-22T08:51:23.550Z,97145.06
2022-11-22T08:53:51.172Z,97142.06
2022-11-22T08:56:44.521Z,97131.19
2022-11-22T08:59:12.219Z,97130.34
2022-11-22T09:01:40.016Z,97138.75
2022-11-22T09:04:07.835Z,97138.72
2022-11-22T09:09:42.773Z,97126.97
2022-11-22T09:12:10.454Z,97125.75
2022-11-22T09:14:38.145Z,97122.91
2022-11-22T09:17:06.170Z,97136.78
2022-11-22T09:19:33.945Z,97131.56
2022-11-22T09:22:01.666Z,97133.34
2022-11-22T09:24:29.248Z,97133.69
2022-11-22T09:26:56.866Z,97134.78
2022-11-22T09:29:26.285Z,97149.53
2022-11-22T09:31:56.009Z,97151.88
2022-11-22T09:34:23.764Z,97152.97
2022-11-22T09:36:51.309Z,97158.69
2022-11-22T09:39:18.946Z,97165.16
2022-11-22T09:42:37.914Z,97172.03
2022-11-22T09:45:27.356Z,97185.13
2022-11-22T09:48:19.534Z,97176.91
2022-11-22T09:51:10.392Z,97185.22
2022-11-22T09:53:46.745Z,97178.47
2022-11-22T09:56:19.395Z,97182.00
2022-11-22T09:59:16.079Z,97184.88
2022-11-22T10:02:11.663Z,97192.59
2022-11-22T10:04:56.727Z,97199.38
2022-11-22T10:07:36.312Z,97204.03
2022-11-22T10:10:11.634Z,97206.94
2022-11-22T10:12:49.032Z,97203.06
2022-11-22T10:16:03.870Z,97206.69
2022-11-22T10:18:57.580Z,97215.63
2022-11-22T10:21:25.902Z,97211.44
2022-11-22T10:23:53.975Z,97212.97
2022-11-22T10:26:34.533Z,97216.19
2022-11-22T10:29:23.165Z,97218.25
2022-11-22T10:32:29.170Z,97215.44
2022-11-22T10:35:11.301Z,97215.75
2022-11-22T10:38:26.692Z,97215.69
2022-11-22T10:41:30.306Z,97213.44
2022-11-22T10:44:23.402Z,97225.75
2022-11-22T10:46:57.140Z,97220.03
2022-11-22T10:50:01.512Z,97225.13
2022-11-22T10:52:55.421Z,97224.44
2022-11-22T10:55:38.251Z,97221.13
2022-11-22T10:58:34.626Z,97228.91
2022-11-22T11:01:23.227Z,97219.47
2022-11-22T11:03:58.367Z,97219.56
2022-11-22T11:07:11.456Z,97220.41
2022-11-22T11:13:15.341Z,97215.66
2022-11-22T11:15:52.820Z,97212.00
2022-11-22T11:18:28.935Z,97207.31
2022-11-22T11:20:56.856Z,97210.13
2022-11-22T11:23:24.765Z,97203.19
2022-11-22T11:25:52.648Z,97208.47
2022-11-22T11:28:30.164Z,97193.31
2022-11-22T11:31:08.167Z,97192.59
2022-11-22T11:33:38.904Z,97190.75
2022-11-22T11:36:20.978Z,97186.38
2022-11-22T11:38:57.771Z,97191.63
2022-11-22T11:41:37.519Z,97189.38
2022-11-22T11:44:28.857Z,97188.22
2022-11-22T11:46:56.961Z,97182.22
2022-11-22T11:49:31.566Z,97178.25
2022-11-22T11:52:22.755Z,97171.53
2022-11-22T11:54:54.657Z,97170.78
2022-11-22T11:57:35.131Z,97167.13
2022-11-22T12:00:06.899Z,97171.09
2022-11-22T12:02:42.829Z,97160.66
2022-11-22T12:05:13.751Z,97148.06
2022-11-22T12:07:46.397Z,97146.50
2022-11-22T12:10:48.718Z,97136.66
2022-11-22T12:13:35.279Z,97137.03
2022-11-22T12:16:24.391Z,97135.78
2022-11-22T12:19:34.532Z,97139.59
2022-11-22T12:22:49.405Z,97131.16
2022-11-22T12:25:32.921Z,97116.88
2022-11-22T12:28:15.298Z,97126.53
2022-11-22T12:30:45.527Z,97121.81
2022-11-22T12:33:28.827Z,97112.25
2022-11-22T12:35:58.251Z,97123.78
2022-11-22T12:38:40.612Z,97116.78
2022-11-22T12:41:16.982Z,97115.16
2022-11-22T12:43:57.120Z,97125.03
2022-11-22T12:46:39.596Z,97119.00
2022-11-22T12:49:37.727Z,97112.72
2022-11-22T12:52:33.685Z,97104.47
2022-11-22T12:55:25.238Z,97110.28
2022-11-22T12:58:12.494Z,97106.38
2022-11-22T13:01:17.148Z,97112.00
2022-11-22T13:04:07.090Z,97107.59
2022-11-22T13:06:57.417Z,97101.03
2022-11-22T13:09:38.759Z,97107.13
2022-11-22T13:12:12.313Z,97103.16
2022-11-22T13:14:55.480Z,97100.31
2022-11-22T13:17:26.239Z,97093.22
2022-11-22T13:20:03.405Z,97099.03
2022-11-22T13:23:37.330Z,97106.13
2022-11-22T13:26:27.197Z,97094.25
2022-11-22T13:28:56.097Z,97100.31
2022-11-22T13:31:23.975Z,97101.13
2022-11-22T13:33:59.307Z,97102.84
2022-11-22T13:36:29.994Z,97103.72
2022-11-22T13:39:16.307Z,97111.09
2022-11-22T13:42:04.288Z,97112.47
2022-11-22T13:44:32.318Z,97110.41
2022-11-22T13:47:13.174Z,97111.81
2022-11-22T13:49:48.992Z,97107.38
2022-11-22T13:52:16.999Z,97114.53
2022-11-22T13:54:47.699Z,97107.84
2022-11-22T13:57:27.632Z,97118.22
2022-11-22T14:00:16.785Z,97124.84
2022-11-22T14:02:49.695Z,97132.34
2022-11-22T14:05:41.708Z,97130.28
2022-11-22T14:08:40.476Z,97136.47
2022-11-22T14:12:01.226Z,97141.22
2022-11-22T14:14:50.640Z,97136.34
2022-11-22T14:17:43.464Z,97131.88
2022-11-22T14:20:24.112Z,97135.84
2022-11-22T14:23:06.940Z,97125.59
2022-11-22T14:26:12.456Z,97126.66
2022-11-22T14:29:12.122Z,97112.81
2022-11-22T14:31:40.252Z,97114.03
2022-11-22T14:34:29.828Z,97125.25
2022-11-22T14:37:16.329Z,97132.72
2022-11-22T14:39:56.053Z,97135.56
2022-11-22T14:42:36.717Z,97134.47
2022-11-22T14:45:10.514Z,97134.94
2022-11-22T14:47:53.016Z,97133.00
2022-11-22T14:50:34.229Z,97134.72
2022-11-22T14:53:46.177Z,97140.25
2022-11-22T14:56:23.761Z,97142.22
2022-11-22T14:59:09.049Z,97144.78
2022-11-22T15:02:24.336Z,97146.09
2022-11-22T15:09:12.132Z,97147.91
2022-11-22T15:09:20.992Z,97148.13
2022-11-22T15:11:34.684Z,97152.19
2022-11-22T15:14:45.244Z,97156.53
2022-11-22T15:58:12.899Z,97198.47
2022-11-22T16:00:44.806Z,97199.78
2022-11-22T16:03:36.042Z,97206.19
2022-11-22T16:06:12.134Z,97213.03
2022-11-22T16:08:48.615Z,97204.59
2022-11-22T16:11:37.479Z,97201.38
2022-11-22T16:14:37.025Z,97205.72
2022-11-22T16:17:32.377Z,97206.47
2022-11-22T16:20:21.831Z,97210.22
2022-11-22T16:23:15.246Z,97211.13
2022-11-22T16:25:53.539Z,97216.50
2022-11-22T16:28:27.098Z,97208.56
2022-11-22T16:31:24.798Z,97213.94
2022-11-22T16:33:55.764Z,97217.03
2022-11-22T16:36:28.661Z,97222.63
2022-11-22T16:38:56.266Z,97225.00
2022-11-22T16:41:27.464Z,97225.72
2022-11-22T16:44:14.350Z,97228.75
2022-11-22T16:46:42.493Z,97230.16
2022-11-22T16:49:23.163Z,97221.66
2022-11-22T16:51:51.775Z,97230.31
2022-11-22T16:54:20.881Z,97229.94
2022-11-22T16:56:48.488Z,97233.00
2022-11-22T16:59:16.174Z,97240.72
2022-11-22T17:01:46.094Z,97240.06
2022-11-22T17:04:26.237Z,97241.09
2022-11-22T17:06:56.335Z,97237.69
2022-11-22T17:09:24.245Z,97241.59
2022-11-22T17:11:52.555Z,97245.88
2022-11-22T17:14:20.828Z,97242.00
2022-11-22T17:16:48.695Z,97245.97
2022-11-22T17:19:52.080Z,97241.91
2022-11-22T17:22:06.984Z,97253.44
2022-11-22T17:24:34.960Z,97255.59
2022-11-22T17:27:02.558Z,97257.09
2022-11-22T17:32:18.542Z,97267.44
2022-11-22T17:34:46.289Z,97274.88
2022-11-22T17:37:14.249Z,97266.84
2022-11-22T17:39:42.031Z,97268.63
2022-11-22T17:42:12.053Z,97276.72
2022-11-22T17:44:40.227Z,97284.34
2022-11-22T17:47:08.756Z,97285.09
2022-11-22T17:49:36.678Z,97282.28
2022-11-22T17:52:04.741Z,97289.16
2022-11-22T17:54:32.318Z,97289.19
2022-11-22T17:56:59.893Z,97290.25
2022-11-22T17:59:27.715Z,97290.03
2022-11-22T18:01:55.467Z,97291.41
2022-11-22T18:04:23.303Z,97292.16
2022-11-22T18:06:56.325Z,97296.22
2022-11-22T18:09:24.044Z,97302.94
2022-11-22T18:11:51.834Z,97301.97
2022-11-22T18:14:19.647Z,97297.91
2022-11-22T18:16:47.427Z,97302.09
2022-11-22T18:19:15.915Z,97301.66
2022-11-22T18:21:43.786Z,97307.03
2022-11-22T18:24:12.114Z,97312.75
2022-11-22T18:26:40.952Z,97310.41
2022-11-22T18:31:58.903Z,97321.50
2022-11-22T18:34:27.698Z,97328.81
2022-11-22T18:37:01.567Z,97340.66
2022-11-22T18:39:33.923Z,97341.88
2022-11-22T18:42:02.521Z,97345.56
2022-11-22T18:44:30.827Z,97342.16
2022-11-22T18:46:58.629Z,97348.84
2022-11-22T18:49:26.393Z,97354.78
2022-11-22T18:51:54.184Z,97352.31
2022-11-22T18:54:22.819Z,97349.44
2022-11-22T18:56:51.585Z,97354.53
2022-11-22T18:59:19.673Z,97349.53
2022-11-22T19:01:47.484Z,97359.38
2022-11-22T19:04:16.378Z,97349.22
2022-11-22T19:06:45.677Z,97349.31
2022-11-22T19:09:13.331Z,97350.59
2022-11-22T19:11:41.217Z,97350.25
2022-11-22T19:14:09.209Z,97353.72
2022-11-22T19:16:37.325Z,97357.75
2022-11-22T19:19:05.379Z,97358.19
2022-11-22T19:21:33.093Z,97354.81
2022-11-22T19:24:01.021Z,97357.56
2022-11-22T19:26:29.003Z,97351.25
2022-11-22T19:29:02.360Z,97351.69
2022-11-22T19:31:31.608Z,97357.91
2022-11-22T19:34:00.265Z,97357.06
2022-11-22T19:36:34.180Z,97359.66
2022-11-22T19:39:05.037Z,97358.44
2022-11-22T19:41:33.706Z,97360.81
2022-11-22T19:44:05.557Z,97357.91
2022-11-22T19:46:36.364Z,97355.84
2022-11-22T19:49:04.874Z,97361.91
2022-11-22T19:51:32.759Z,97361.44
2022-11-22T19:54:02.674Z,97365.56
2022-11-22T19:56:34.020Z,97370.03
2022-11-22T19:59:12.869Z,97365.44
2022-11-22T20:01:40.874Z,97370.63
2022-11-22T20:04:16.479Z,97377.22
2022-11-22T20:06:49.699Z,97377.13
2022-11-22T20:09:22.223Z,97376.94
2022-11-22T20:11:50.046Z,97391.06
2022-11-22T20:14:17.730Z,97383.16
2022-11-22T20:16:45.986Z,97383.84
2022-11-22T20:19:15.232Z,97379.31
2022-11-22T20:21:43.857Z,97390.16
2022-11-22T20:24:13.441Z,97383.50
2022-11-22T20:26:41.274Z,97384.78
2022-11-22T20:29:13.991Z,97387.59
2022-11-22T20:31:41.875Z,97387.19
2022-11-22T20:34:10.610Z,97389.22
2022-11-22T20:36:38.405Z,97394.81
2022-11-22T20:39:10.345Z,97394.13
2022-11-22T20:41:39.561Z,97396.31
2022-11-22T20:44:11.712Z,97399.50
2022-11-22T20:46:40.584Z,97404.47
2022-11-22T20:49:08.356Z,97406.47
2022-11-22T20:51:38.650Z,97411.00
2022-11-22T20:54:07.828Z,97410.25
2022-11-22T20:56:38.860Z,97408.84
2022-11-22T20:59:07.052Z,97414.00
2022-11-22T21:01:34.861Z,97415.25
2022-11-22T21:04:02.824Z,97413.72
2022-11-22T21:06:32.903Z,97420.44
2022-11-22T21:09:02.051Z,97417.50
2022-11-22T21:11:34.633Z,97418.84
2022-11-22T21:14:02.489Z,97416.34
2022-11-22T21:16:30.999Z,97416.94
2022-11-22T21:19:04.765Z,97416.28
2022-11-22T21:21:35.708Z,97425.00
2022-11-22T21:24:05.608Z,97427.78
2022-11-22T21:26:34.249Z,97422.13
2022-11-22T21:29:04.879Z,97425.56
2022-11-22T21:31:32.533Z,97432.13
2022-11-22T21:34:00.091Z,97432.56
2022-11-22T21:36:27.832Z,97443.59
2022-11-22T21:38:55.584Z,97442.47
2022-11-22T21:41:39.273Z,97446.56
2022-11-22T21:44:08.751Z,97443.44
2022-11-22T21:46:36.506Z,97443.59
2022-11-22T21:49:04.108Z,97449.72
2022-11-22T21:51:32.062Z,97449.16
2022-11-22T21:54:02.568Z,97457.19
2022-11-22T21:56:31.732Z,97453.13
2022-11-22T21:58:59.479Z,97448.63
2022-11-22T22:01:27.298Z,97454.00
2022-11-22T22:03:55.230Z,97452.28
2022-11-22T22:06:23.507Z,97452.66
2022-11-22T22:09:00.692Z,97450.44
2022-11-22T22:11:28.665Z,97452.63
2022-11-22T22:13:58.287Z,97454.06
2022-11-22T22:16:26.355Z,97458.56
2022-11-22T22:19:01.337Z,97459.69
2022-11-22T22:21:31.258Z,97462.81
2022-11-22T22:23:58.860Z,97451.00
2022-11-22T22:26:26.767Z,97458.78
2022-11-22T22:28:54.440Z,97453.75
2022-11-22T22:31:24.265Z,97453.16
2022-11-22T22:33:55.676Z,97456.34
2022-11-22T22:36:25.148Z,97457.41
2022-11-22T22:38:54.484Z,97458.78
2022-11-22T22:41:22.621Z,97466.22
2022-11-22T22:43:50.877Z,97465.13
2022-11-22T22:46:20.832Z,97470.28
2022-11-22T22:48:50.219Z,97474.00
2022-11-22T22:51:29.028Z,97476.66
2022-11-22T22:54:00.720Z,97481.50
2022-11-22T22:56:30.806Z,97481.75
2022-11-22T22:59:00.836Z,97492.81
2022-11-22T23:01:31.006Z,97487.28
2022-11-22T23:04:01.044Z,97486.31
2022-11-22T23:06:35.739Z,97484.19
2022-11-22T23:09:08.267Z,97488.56
2022-11-22T23:11:55.520Z,97489.47
2022-11-22T23:14:27.253Z,97491.19
2022-11-22T23:16:58.016Z,97489.09
2022-11-22T23:19:27.519Z,97496.28
2022-11-22T23:21:55.529Z,97499.81
2022-11-22T23:24:23.464Z,97498.91
2022-11-22T23:26:51.391Z,97501.34
2022-11-22T23:29:19.143Z,97498.06
2022-11-22T23:31:46.864Z,97500.28
2022-11-22T23:34:14.703Z,97509.22
2022-11-22T23:36:42.291Z,97505.72
2022-11-22T23:39:10.292Z,97496.09
2022-11-22T23:41:38.227Z,97496.50
2022-11-22T23:44:06.406Z,97503.44
2022-11-22T23:46:35.220Z,97496.34
2022-11-22T23:49:04.435Z,97496.50
2022-11-22T23:51:33.831Z,97498.41
2022-11-22T23:54:05.176Z,97494.38
2022-11-22T23:56:35.356Z,97485.59
2022-11-22T23:59:05.094Z,97491.31
